createdAt,value
2022-11-28T00:01:31.196Z,5.80
2022-11-28T00:03:58.230Z,5.81
2022-11-28T00:06:26.596Z,5.81
2022-11-28T00:08:54.146Z,5.84
2022-11-28T00:11:20.811Z,5.77
2022-11-28T00:13:47.807Z,5.78
2022-11-28T00:16:18.558Z,5.76
2022-11-28T00:18:45.303Z,5.75
2022-11-28T00:21:14.424Z,5.72
2022-11-28T00:23:42.537Z,5.67
2022-11-28T00:26:24.464Z,5.62
2022-11-28T00:28:51.779Z,5.60
2022-11-28T00:31:24.087Z,5.59
2022-11-28T00:33:51.569Z,5.57
2022-11-28T00:36:19.376Z,5.53
2022-11-28T00:38:46.327Z,5.52
2022-11-28T00:41:18.734Z,5.50
2022-11-28T00:43:46.311Z,5.50
2022-11-28T00:46:14.036Z,5.46
2022-11-28T00:48:41.179Z,5.53
2022-11-28T00:51:14.293Z,5.55
2022-11-28T00:53:42.695Z,5.61
2022-11-28T00:56:12.013Z,5.69
2022-11-28T00:58:39.676Z,5.76
2022-11-28T01:01:15.622Z,5.80
2022-11-28T01:03:43.180Z,5.89
2022-11-28T01:06:11.545Z,5.90
2022-11-28T01:08:38.315Z,5.96
2022-11-28T01:11:12.282Z,6.00
2022-11-28T01:13:39.978Z,6.01
2022-11-28T01:16:07.228Z,6.08
2022-11-28T01:18:33.970Z,6.12
2022-11-28T01:21:00.642Z,6.10
2022-11-28T01:23:27.298Z,6.07
2022-11-28T01:25:54.019Z,6.07
2022-11-28T01:28:20.707Z,6.04
2022-11-28T01:30:47.413Z,6.03
2022-11-28T01:33:14.118Z,6.07
2022-11-28T01:35:40.882Z,6.00
2022-11-28T01:38:07.569Z,5.95
2022-11-28T01:40:34.352Z,5.89
2022-11-28T01:43:01.029Z,5.84
2022-11-28T01:45:33.030Z,5.79
2022-11-28T01:48:03.034Z,5.74
2022-11-28T01:50:31.405Z,5.65
2022-11-28T01:53:01.602Z,5.60
2022-11-28T01:55:34.389Z,5.54
2022-11-28T01:58:01.111Z,5.46
2022-11-28T02:00:27.960Z,5.42
2022-11-28T02:03:11.103Z,5.39
2022-11-28T02:05:37.860Z,5.31
2022-11-28T02:08:05.114Z,5.25
2022-11-28T02:10:48.518Z,5.21
2022-11-28T02:13:29.004Z,5.17
2022-11-28T02:15:55.713Z,5.13
2022-11-28T02:18:38.459Z,5.10
2022-11-28T02:21:08.193Z,5.07
2022-11-28T02:23:46.971Z,5.02
2022-11-28T02:26:34.633Z,4.96
2022-11-28T02:29:42.949Z,4.90
2022-11-28T02:32:15.238Z,4.83
2022-11-28T02:35:03.109Z,4.77
2022-11-28T02:37:37.681Z,4.70
2022-11-28T02:40:24.392Z,4.67
2022-11-28T02:42:58.917Z,4.60
2022-11-28T02:45:31.892Z,4.55
2022-11-28T02:48:04.150Z,4.52
2022-11-28T02:50:36.179Z,4.46
2022-11-28T02:53:20.506Z,4.42
2022-11-28T02:55:47.904Z,4.38
2022-11-28T02:58:14.602Z,4.38
2022-11-28T03:00:46.088Z,4.36
2022-11-28T03:03:21.839Z,4.33
2022-11-28T03:05:51.206Z,4.32
2022-11-28T03:08:54.991Z,4.28
2022-11-28T03:11:27.541Z,4.24
2022-11-28T03:14:04.536Z,4.20
2022-11-28T03:16:39.945Z,4.19
2022-11-28T03:19:12.724Z,4.19
2022-11-28T03:21:41.837Z,4.19
2022-11-28T03:24:34.835Z,4.21
2022-11-28T03:27:16.403Z,4.25
2022-11-28T03:29:49.995Z,4.31
2022-11-28T03:32:32.892Z,4.42
2022-11-28T03:35:10.956Z,4.59
2022-11-28T03:37:42.222Z,4.68
2022-11-28T03:40:13.689Z,4.73
2022-11-28T03:42:46.970Z,4.79
2022-11-28T03:45:22.307Z,4.88
2022-11-28T03:47:55.031Z,4.93
2022-11-28T03:50:27.531Z,5.02
2022-11-28T03:53:00.463Z,5.08
2022-11-28T03:55:39.416Z,5.14
2022-11-28T03:58:09.104Z,5.20
2022-11-28T04:00:38.631Z,5.26
2022-11-28T04:03:10.145Z,5.30
2022-11-28T04:06:26.297Z,5.34
2022-11-28T04:09:00.478Z,5.39
2022-11-28T04:11:35.716Z,5.41
2022-11-28T04:14:13.581Z,5.52
2022-11-28T04:16:56.903Z,5.50
2022-11-28T04:19:51.316Z,5.46
2022-11-28T04:22:29.151Z,5.46
2022-11-28T04:24:58.958Z,5.46
2022-11-28T04:27:33.125Z,5.53
2022-11-28T04:30:01.705Z,5.53
2022-11-28T04:32:30.564Z,5.56
2022-11-28T04:35:02.333Z,5.59
2022-11-28T04:37:30.728Z,5.58
2022-11-28T04:39:57.732Z,5.60
2022-11-28T04:42:33.932Z,5.59
2022-11-28T04:45:00.549Z,5.61
2022-11-28T04:47:27.288Z,5.64
2022-11-28T04:49:54.353Z,5.61
2022-11-28T04:52:35.514Z,5.62
2022-11-28T04:55:09.631Z,5.62
2022-11-28T04:57:57.472Z,5.61
2022-11-28T05:00:24.454Z,5.60
2022-11-28T05:02:53.682Z,5.61
2022-11-28T05:05:26.596Z,5.58
2022-11-28T05:07:53.534Z,5.57
2022-11-28T05:10:20.485Z,5.55
2022-11-28T05:12:47.163Z,5.53
2022-11-28T05:15:19.099Z,5.49
2022-11-28T05:17:47.036Z,5.43
2022-11-28T05:20:14.302Z,5.38
2022-11-28T05:22:40.981Z,5.31
2022-11-28T05:25:07.966Z,5.27
2022-11-28T05:27:35.035Z,5.27
2022-11-28T05:30:01.774Z,5.27
2022-11-28T05:32:32.115Z,5.29
2022-11-28T05:34:58.858Z,5.30
2022-11-28T05:37:25.925Z,5.35
2022-11-28T05:39:52.605Z,5.37
2022-11-28T05:42:19.431Z,5.42
2022-11-28T05:44:46.252Z,5.45
2022-11-28T05:47:12.931Z,5.42
2022-11-28T05:49:39.671Z,5.49
2022-11-28T05:52:06.412Z,5.44
2022-11-28T05:54:33.250Z,5.43
2022-11-28T05:57:00.006Z,5.42
2022-11-28T05:59:26.678Z,5.42
2022-11-28T06:01:53.427Z,5.41
2022-11-28T06:04:20.187Z,5.40
2022-11-28T06:06:51.587Z,5.39
2022-11-28T06:09:20.952Z,5.41
2022-11-28T06:11:51.330Z,5.43
2022-11-28T06:14:18.066Z,5.47
2022-11-28T06:16:44.753Z,5.46
2022-11-28T06:19:12.078Z,5.51
2022-11-28T06:21:39.225Z,5.54
2022-11-28T06:24:06.269Z,5.61
2022-11-28T06:26:32.939Z,5.56
2022-11-28T06:28:59.618Z,5.61
2022-11-28T06:31:28.767Z,5.64
2022-11-28T06:33:56.253Z,5.64
2022-11-28T06:36:23.169Z,5.63
2022-11-28T06:38:49.821Z,5.70
2022-11-28T06:41:18.423Z,5.70
2022-11-28T06:43:45.105Z,5.65
2022-11-28T06:46:17.009Z,5.68
2022-11-28T06:48:47.757Z,5.62
2022-11-28T06:51:14.990Z,5.60
2022-11-28T06:53:42.493Z,5.57
2022-11-28T06:56:14.447Z,5.56
2022-11-28T06:58:42.156Z,5.55
2022-11-28T07:01:14.595Z,5.57
2022-11-28T07:03:42.453Z,5.55
2022-11-28T07:06:09.635Z,5.54
2022-11-28T07:08:36.951Z,5.58
2022-11-28T07:11:12.158Z,5.55
2022-11-28T07:13:39.686Z,5.59
2022-11-28T07:16:07.655Z,5.57
2022-11-28T07:18:34.979Z,5.51
2022-11-28T07:21:01.870Z,5.53
2022-11-28T07:23:28.556Z,5.53
2022-11-28T07:26:00.001Z,5.53
2022-11-28T07:28:28.023Z,5.53
2022-11-28T07:31:29.596Z,5.55
2022-11-28T07:33:56.387Z,5.54
2022-11-28T07:36:25.082Z,5.47
2022-11-28T07:38:57.366Z,5.51
2022-11-28T07:41:28.601Z,5.52
2022-11-28T07:44:00.793Z,5.49
2022-11-28T07:46:28.643Z,5.49
2022-11-28T07:48:55.925Z,5.50
2022-11-28T07:51:28.134Z,5.52
2022-11-28T07:53:55.319Z,5.50
2022-11-28T07:56:25.137Z,5.47
2022-11-28T07:58:51.846Z,5.46
2022-11-28T08:01:25.358Z,5.44
2022-11-28T08:03:53.096Z,5.44
2022-11-28T08:06:23.969Z,5.43
2022-11-28T08:08:53.235Z,5.46
2022-11-28T08:11:21.404Z,5.44
2022-11-28T08:13:48.371Z,5.44
2022-11-28T08:16:20.331Z,5.50
2022-11-28T08:18:48.487Z,5.43
2022-11-28T08:21:19.024Z,5.42
2022-11-28T08:23:46.005Z,5.33
2022-11-28T08:26:16.918Z,5.35
2022-11-28T08:28:44.067Z,5.30
2022-11-28T08:31:16.978Z,5.24
2022-11-28T08:33:44.706Z,5.21
2022-11-28T08:36:13.399Z,5.17
2022-11-28T08:38:40.853Z,5.15
2022-11-28T08:41:11.203Z,5.15
2022-11-28T08:43:38.390Z,5.11
2022-11-28T08:46:06.362Z,5.10
2022-11-28T08:48:35.024Z,5.11
2022-11-28T08:51:01.820Z,5.11
2022-11-28T08:53:28.697Z,5.13
2022-11-28T08:55:55.975Z,5.10
2022-11-28T08:58:22.706Z,5.12
2022-11-28T09:00:49.518Z,5.11
2022-11-28T09:03:18.323Z,5.15
2022-11-28T09:05:46.712Z,5.10
2022-11-28T09:08:18.327Z,5.14
2022-11-28T09:10:45.676Z,5.10
2022-11-28T09:13:13.999Z,5.15
2022-11-28T09:15:49.037Z,5.14
2022-11-28T09:18:18.317Z,5.16
2022-11-28T09:20:44.975Z,5.18
2022-11-28T09:23:11.654Z,5.19
2022-11-28T09:25:39.270Z,5.18
2022-11-28T09:28:07.127Z,5.19
2022-11-28T09:30:34.717Z,5.18
2022-11-28T09:33:01.497Z,5.18
2022-11-28T09:35:28.206Z,5.20
2022-11-28T09:37:54.872Z,5.24
2022-11-28T09:40:33.135Z,5.30
2022-11-28T09:43:01.876Z,5.30
2022-11-28T09:45:28.795Z,5.34
2022-11-28T09:48:00.165Z,5.36
2022-11-28T09:50:32.605Z,5.38
2022-11-28T09:53:08.428Z,5.39
2022-11-28T09:55:41.289Z,5.45
2022-11-28T09:58:40.064Z,5.46
2022-11-28T10:01:58.196Z,5.52
2022-11-28T10:05:02.593Z,5.63
2022-11-28T10:07:54.918Z,5.70
2022-11-28T10:10:43.837Z,5.72
2022-11-28T10:13:13.278Z,5.79
2022-11-28T10:16:00.169Z,5.78
2022-11-28T10:18:33.769Z,5.80
2022-11-28T10:21:11.728Z,5.81
2022-11-28T10:23:46.031Z,5.88
2022-11-28T10:26:27.959Z,5.88
2022-11-28T10:28:56.807Z,5.90
2022-11-28T10:31:37.053Z,5.96
2022-11-28T10:34:30.759Z,5.99
2022-11-28T10:37:02.018Z,6.04
2022-11-28T10:39:29.083Z,6.09
2022-11-28T10:42:17.063Z,6.09
2022-11-28T10:45:08.813Z,6.15
2022-11-28T10:47:35.503Z,6.13
2022-11-28T10:50:11.404Z,6.18
2022-11-28T10:52:50.716Z,6.21
2022-11-28T10:55:41.528Z,6.24
2022-11-28T10:58:15.037Z,6.30
2022-11-28T11:00:43.013Z,6.34
2022-11-28T11:03:12.723Z,6.40
2022-11-28T11:05:39.442Z,6.40
2022-11-28T11:08:09.260Z,6.47
2022-11-28T11:10:46.995Z,6.58
2022-11-28T11:13:23.764Z,6.75
2022-11-28T11:16:00.081Z,6.87
2022-11-28T11:18:29.753Z,6.99
2022-11-28T11:21:13.610Z,7.07
2022-11-28T11:23:40.549Z,7.20
2022-11-28T11:26:11.133Z,7.31
2022-11-28T11:28:45.202Z,7.41
2022-11-28T11:31:33.241Z,7.50
2022-11-28T11:34:06.380Z,7.60
2022-11-28T11:36:35.839Z,7.66
2022-11-28T11:39:11.095Z,7.74
2022-11-28T11:41:43.393Z,7.78
2022-11-28T11:44:16.338Z,7.88
2022-11-28T11:47:03.022Z,7.99
2022-11-28T11:49:29.997Z,8.08
2022-11-28T11:51:58.839Z,8.20
2022-11-28T11:54:25.821Z,8.31
2022-11-28T11:57:05.756Z,8.38
2022-11-28T11:59:43.595Z,8.44
2022-11-28T12:02:19.763Z,8.36
2022-11-28T12:04:55.399Z,8.45
2022-11-28T12:07:28.671Z,8.39
2022-11-28T12:10:01.717Z,8.43
2022-11-28T12:12:35.493Z,8.40
2022-11-28T12:15:02.182Z,8.44
2022-11-28T12:17:49.504Z,8.47
2022-11-28T12:20:26.726Z,8.53
2022-11-28T12:23:19.590Z,8.61
2022-11-28T12:26:20.089Z,8.64
2022-11-28T12:28:47.442Z,8.75
2022-11-28T12:31:20.014Z,8.82
2022-11-28T12:34:05.892Z,8.83
2022-11-28T12:36:37.242Z,8.88
2022-11-28T12:39:42.215Z,8.86
2022-11-28T12:42:19.107Z,8.82
2022-11-28T12:44:59.196Z,8.84
2022-11-28T12:47:51.805Z,8.78
2022-11-28T12:50:21.471Z,8.85
2022-11-28T12:53:07.035Z,8.85
2022-11-28T12:55:36.805Z,8.84
2022-11-28T12:58:11.613Z,8.90
2022-11-28T13:00:58.922Z,8.97
2022-11-28T13:03:37.735Z,9.02
2022-11-28T13:06:36.889Z,9.02
2022-11-28T13:09:19.398Z,8.95
2022-11-28T13:12:07.767Z,8.97
2022-11-28T13:14:54.798Z,8.82
2022-11-28T13:17:24.513Z,8.77
2022-11-28T13:19:57.337Z,8.80
2022-11-28T13:22:25.795Z,8.67
2022-11-28T13:25:04.601Z,8.56
2022-11-28T13:27:38.683Z,8.48
2022-11-28T13:30:19.965Z,8.39
2022-11-28T13:33:12.608Z,8.35
2022-11-28T13:35:42.955Z,8.31
2022-11-28T13:38:36.221Z,8.25
2022-11-28T13:41:43.276Z,8.13
2022-11-28T13:44:06.235Z,8.08
2022-11-28T13:46:33.813Z,8.03
2022-11-28T13:49:20.826Z,8.02
2022-11-28T13:51:48.634Z,7.99
2022-11-28T13:54:19.335Z,7.98
2022-11-28T13:56:48.032Z,7.97
2022-11-28T13:59:22.400Z,7.92
2022-11-28T14:02:00.511Z,7.95
2022-11-28T14:04:28.989Z,7.96
2022-11-28T14:07:05.912Z,7.97
2022-11-28T14:09:32.522Z,7.96
2022-11-28T14:12:05.399Z,7.96
2022-11-28T14:14:44.677Z,8.02
2022-11-28T14:17:18.729Z,8.01
2022-11-28T14:20:32.030Z,8.03
2022-11-28T14:23:13.944Z,8.02
2022-11-28T14:25:51.598Z,8.04
2022-11-28T14:28:30.510Z,8.07
2022-11-28T14:31:30.012Z,8.15
2022-11-28T14:34:02.307Z,8.15
2022-11-28T14:36:36.205Z,8.13
2022-11-28T14:39:05.113Z,8.14
2022-11-28T14:41:32.271Z,8.15
2022-11-28T14:44:36.441Z,8.14
2022-11-28T14:47:32.400Z,8.16
2022-11-28T14:50:05.559Z,8.06
2022-11-28T14:52:41.166Z,8.02
2022-11-28T14:55:08.228Z,7.96
2022-11-28T14:57:37.680Z,7.89
2022-11-28T15:00:08.296Z,7.83
2022-11-28T15:02:48.921Z,7.77
2022-11-28T15:05:33.494Z,7.70
2022-11-28T15:08:58.965Z,7.61
2022-11-28T15:11:25.773Z,7.56
2022-11-28T15:14:01.464Z,7.50
2022-11-28T15:16:33.178Z,7.42
2022-11-28T15:19:07.096Z,7.38
2022-11-28T15:21:44.794Z,7.33
2022-11-28T15:24:25.112Z,7.27
2022-11-28T15:26:57.327Z,7.21
2022-11-28T15:29:27.442Z,7.15
2022-11-28T15:31:56.390Z,7.09
2022-11-28T15:34:31.496Z,7.03
2022-11-28T15:37:19.786Z,6.96
2022-11-28T15:39:48.563Z,6.90
2022-11-28T15:42:24.549Z,6.81
2022-11-28T15:45:00.294Z,6.75
2022-11-28T15:47:28.261Z,6.69
2022-11-28T15:50:03.735Z,6.61
2022-11-28T15:52:30.565Z,6.55
2022-11-28T15:54:57.666Z,6.48
2022-11-28T15:57:28.504Z,6.41
2022-11-28T15:59:56.753Z,6.38
2022-11-28T16:02:31.144Z,6.29
2022-11-28T16:05:06.311Z,6.24
2022-11-28T16:07:37.869Z,6.18
2022-11-28T16:10:17.785Z,6.13
2022-11-28T16:12:44.930Z,6.07
2022-11-28T16:15:19.573Z,6.02
2022-11-28T16:17:46.744Z,5.96
2022-11-28T16:20:28.080Z,5.94
2022-11-28T16:23:05.232Z,5.92
2022-11-28T16:25:32.737Z,5.90
2022-11-28T16:27:59.586Z,5.88
2022-11-28T16:30:32.410Z,5.91
2022-11-28T16:32:59.445Z,5.91
2022-11-28T16:35:34.687Z,5.93
2022-11-28T16:38:22.124Z,5.95
2022-11-28T16:40:50.042Z,5.94
2022-11-28T16:43:30.426Z,5.94
2022-11-28T16:46:02.385Z,5.91
2022-11-28T16:48:32.718Z,5.93
2022-11-28T16:51:02.582Z,5.90
2022-11-28T16:53:45.791Z,5.89
2022-11-28T16:56:30.840Z,5.86
2022-11-28T16:59:16.073Z,5.83
2022-11-28T17:01:47.177Z,5.84
2022-11-28T17:04:22.558Z,5.82
2022-11-28T17:06:50.083Z,5.78
2022-11-28T17:09:17.022Z,5.76
2022-11-28T17:11:52.798Z,5.75
2022-11-28T17:14:19.466Z,5.70
2022-11-28T17:16:46.233Z,5.66
2022-11-28T17:19:13.166Z,5.61
2022-11-28T17:21:49.178Z,5.59
2022-11-28T17:24:24.354Z,5.58
2022-11-28T17:26:52.778Z,5.52
2022-11-28T17:29:21.560Z,5.49
2022-11-28T17:31:49.127Z,5.40
2022-11-28T17:34:24.216Z,5.36
2022-11-28T17:36:51.576Z,5.32
2022-11-28T17:39:19.020Z,5.26
2022-11-28T17:41:47.110Z,5.20
2022-11-28T17:44:31.976Z,5.16
2022-11-28T17:47:00.582Z,5.09
2022-11-28T17:49:28.068Z,5.06
2022-11-28T17:51:55.553Z,5.03
2022-11-28T17:54:23.939Z,5.00
2022-11-28T17:56:51.980Z,4.93
2022-11-28T17:59:20.903Z,4.88
2022-11-28T18:01:47.883Z,4.86
2022-11-28T18:04:14.752Z,4.83
2022-11-28T18:06:46.832Z,4.82
2022-11-28T18:09:14.466Z,4.79
2022-11-28T18:11:42.220Z,4.75
2022-11-28T18:14:09.839Z,4.72
2022-11-28T18:16:36.945Z,4.69
2022-11-28T18:19:04.354Z,4.66
2022-11-28T18:21:32.448Z,4.62
2022-11-28T18:23:59.118Z,4.60
2022-11-28T18:26:26.718Z,4.57
2022-11-28T18:28:54.546Z,4.56
2022-11-28T18:31:22.770Z,4.54
2022-11-28T18:33:49.813Z,4.49
2022-11-28T18:36:21.886Z,4.47
2022-11-28T18:38:48.652Z,4.46
2022-11-28T18:41:17.753Z,4.46
2022-11-28T18:43:44.508Z,4.46
2022-11-28T18:46:16.584Z,4.45
2022-11-28T18:48:45.203Z,4.49
2022-11-28T18:51:17.656Z,4.44
2022-11-28T18:53:45.267Z,4.46
2022-11-28T18:56:12.665Z,4.46
2022-11-28T18:58:42.112Z,4.47
2022-11-28T19:01:15.977Z,4.48
2022-11-28T19:03:43.665Z,4.49
2022-11-28T19:06:11.782Z,4.61
2022-11-28T19:08:39.237Z,4.54
2022-11-28T19:11:13.239Z,4.56
2022-11-28T19:13:41.413Z,4.63
2022-11-28T19:16:22.984Z,4.59
2022-11-28T19:18:49.853Z,4.59
2022-11-28T19:21:19.216Z,4.60
2022-11-28T19:23:49.339Z,4.63
2022-11-28T19:26:19.590Z,4.65
2022-11-28T19:28:46.959Z,4.65
2022-11-28T19:31:21.645Z,4.69
2022-11-28T19:34:00.445Z,4.70
2022-11-28T19:36:29.569Z,4.71
2022-11-28T19:38:56.446Z,4.71
2022-11-28T19:41:23.166Z,4.77
2022-11-28T19:43:51.876Z,4.82
2022-11-28T19:46:18.747Z,4.74
2022-11-28T19:48:45.475Z,4.75
2022-11-28T19:51:12.805Z,4.76
2022-11-28T19:53:41.812Z,4.79
2022-11-28T19:56:15.557Z,4.85
2022-11-28T19:58:42.917Z,4.80
2022-11-28T20:01:15.433Z,4.84
2022-11-28T20:03:42.977Z,4.82
2022-11-28T20:06:11.383Z,4.78
2022-11-28T20:08:39.150Z,4.73
2022-11-28T20:11:14.067Z,4.81
2022-11-28T20:13:42.038Z,4.73
2022-11-28T20:16:10.533Z,4.80
2022-11-28T20:18:38.977Z,4.81
2022-11-28T20:21:16.958Z,4.79
2022-11-28T20:23:52.169Z,4.85
2022-11-28T20:26:20.424Z,4.88
2022-11-28T20:28:48.110Z,4.94
2022-11-28T20:31:27.450Z,4.94
2022-11-28T20:33:54.731Z,4.94
2022-11-28T20:36:23.910Z,5.03
2022-11-28T20:38:52.022Z,4.97
2022-11-28T20:41:20.490Z,5.05
2022-11-28T20:43:47.263Z,5.09
2022-11-28T20:46:31.583Z,5.11
2022-11-28T20:49:00.384Z,5.11
2022-11-28T20:51:29.569Z,5.13
2022-11-28T20:53:57.590Z,5.20
2022-11-28T20:56:26.489Z,5.17
2022-11-28T20:58:53.199Z,5.24
2022-11-28T21:01:22.336Z,5.18
2022-11-28T21:03:49.906Z,5.26
2022-11-28T21:06:16.959Z,5.20
2022-11-28T21:08:43.910Z,5.28
2022-11-28T21:11:30.531Z,5.23
2022-11-28T21:14:01.360Z,5.27
2022-11-28T21:16:31.451Z,5.33
2022-11-28T21:19:02.121Z,5.31
2022-11-28T21:21:30.582Z,5.32
2022-11-28T21:24:00.143Z,5.33
2022-11-28T21:26:30.495Z,5.35
2022-11-28T21:29:01.162Z,5.40
2022-11-28T21:31:31.422Z,5.42
2022-11-28T21:33:59.310Z,5.42
2022-11-28T21:36:27.769Z,5.41
2022-11-28T21:38:57.032Z,5.42
2022-11-28T21:41:28.340Z,5.43
2022-11-28T21:43:55.593Z,5.44
2022-11-28T21:46:22.411Z,5.47
2022-11-28T21:48:49.309Z,5.45
2022-11-28T21:51:17.922Z,5.45
2022-11-28T21:53:44.764Z,5.45
2022-11-28T21:56:11.839Z,5.46
2022-11-28T21:58:39.022Z,5.47
2022-11-28T22:01:08.650Z,5.46
2022-11-28T22:03:36.526Z,5.49
2022-11-28T22:06:06.506Z,5.51
2022-11-28T22:08:34.282Z,5.52
2022-11-28T22:11:11.342Z,5.50
2022-11-28T22:13:38.805Z,5.56
2022-11-28T22:16:17.052Z,5.54
2022-11-28T22:18:44.426Z,5.58
2022-11-28T22:24:08.654Z,5.55
2022-11-28T22:26:41.645Z,5.58
2022-11-28T22:29:13.019Z,5.56
2022-11-28T22:31:39.712Z,5.62
2022-11-28T22:34:06.527Z,5.55
2022-11-28T22:36:34.529Z,5.54
2022-11-28T22:39:02.651Z,5.56
2022-11-28T22:41:30.007Z,5.53
2022-11-28T22:43:59.526Z,5.55
2022-11-28T22:46:26.717Z,5.49
2022-11-28T22:48:53.378Z,5.52
2022-11-28T22:51:23.134Z,5.49
2022-11-28T22:53:57.381Z,5.57
2022-11-28T22:56:24.737Z,5.61
2022-11-28T22:58:51.453Z,5.54
2022-11-28T23:01:27.356Z,5.55
2022-11-28T23:03:55.266Z,5.49
2022-11-28T23:06:26.554Z,5.48
2022-11-28T23:08:53.840Z,5.55
2022-11-28T23:11:22.968Z,5.53
2022-11-28T23:13:50.801Z,5.55
2022-11-28T23:16:21.722Z,5.62
2022-11-28T23:18:50.882Z,5.65
2022-11-28T23:21:19.327Z,5.61
2022-11-28T23:23:46.199Z,5.59
2022-11-28T23:26:19.072Z,5.52
2022-11-28T23:28:46.284Z,5.60
2022-11-28T23:31:17.699Z,5.54
2022-11-28T23:33:45.093Z,5.62
2022-11-28T23:36:18.819Z,5.59
2022-11-28T23:38:46.620Z,5.66
2022-11-28T23:41:13.923Z,5.63
2022-11-28T23:43:40.876Z,5.62
2022-11-28T23:46:09.001Z,5.55
2022-11-28T23:48:35.682Z,5.53
2022-11-28T23:51:02.354Z,5.63
2022-11-28T23:53:29.074Z,5.66
2022-11-28T23:55:55.765Z,5.60
2022-11-28T23:58:22.433Z,5.58
